McCallum, Mississippi
Current Conditions -  °F | °C
As of 3:53 PM on Friday 31 Oct 2014 (Local Time) from KHBG Reporting Station
Scattered Clouds Scattered Clouds  
Wind Chill: 72°   Ceiling: Unl
Heat Index: 72°   Visibility: 10mi
Dew Point: 46°   Wind: 14mph
Humidity: 40%   Direction: 320°NW
Pressure: 30"   Gusts: 21mph
Location:  31.1996°N, 89.2694°W
Report Text: KHBG 312053Z AUTO 32012G18KT 10SM SCT055 22/08 A3000 RMK AO2 SLP159 T02220078 55001
Loading
Personal Weather Stations






























Interactive Weather Map
Tropical Storm Tracking
New forecast layout! Learn more

10-Day Weather Forecast

Advertisements
Track Severe Weather on mobile